sensor_id;sensor_type;location;lat;lon;timestamp;temperature;humidity
25300;DHT22;13241;51.208;4.432;2023-10-31T10:21:55;13.60;99.90
25300;DHT22;13241;51.208;4.432;2023-10-31T10:24:27;13.70;99.90
25300;DHT22;13241;51.208;4.432;2023-10-31T10:26:54;13.70;99.90
25300;DHT22;13241;51.208;4.432;2023-10-31T10:29:23;14.20;99.90
25300;DHT22;13241;51.208;4.432;2023-10-31T10:31:50;13.80;99.90
25300;DHT22;13241;51.208;4.432;2023-10-31T10:34:18;14.30;99.90
25300;DHT22;13241;51.208;4.432;2023-10-31T10:36:47;14.10;99.90
25300;DHT22;13241;51.208;4.432;2023-10-31T10:39:20;14.60;99.90
25300;DHT22;13241;51.208;4.432;2023-10-31T10:41:55;14.30;99.90
25300;DHT22;13241;51.208;4.432;2023-10-31T10:44:36;14.30;99.90
25300;DHT22;13241;51.208;4.432;2023-10-31T10:47:06;14.20;99.90
25300;DHT22;13241;51.208;4.432;2023-10-31T10:49:35;14.20;99.90
25300;DHT22;13241;51.208;4.432;2023-10-31T10:59:50;14.30;99.90
25300;DHT22;13241;51.208;4.432;2023-10-31T11:02:19;14.40;99.90
25300;DHT22;13241;51.208;4.432;2023-10-31T11:04:47;14.30;99.90
25300;DHT22;13241;51.208;4.432;2023-10-31T11:07:16;14.20;99.90
25300;DHT22;13241;51.208;4.432;2023-10-31T11:09:45;14.10;99.90
25300;DHT22;13241;51.208;4.432;2023-10-31T11:12:13;14.30;99.90
25300;DHT22;13241;51.208;4.432;2023-10-31T11:14:40;13.90;99.90
25300;DHT22;13241;51.208;4.432;2023-10-31T11:17:35;13.90;99.90
25300;DHT22;13241;51.208;4.432;2023-10-31T11:20:04;13.90;99.90
25300;DHT22;13241;51.208;4.432;2023-10-31T11:22:41;13.70;99.90
25300;DHT22;13241;51.208;4.432;2023-10-31T11:25:10;13.80;99.90
25300;DHT22;13241;51.208;4.432;2023-10-31T11:27:50;13.90;99.90
25300;DHT22;13241;51.208;4.432;2023-10-31T11:30:33;14.00;99.90
25300;DHT22;13241;51.208;4.432;2023-10-31T11:33:00;14.30;99.90
25300;DHT22;13241;51.208;4.432;2023-10-31T11:35:30;14.30;99.90
25300;DHT22;13241;51.208;4.432;2023-10-31T11:38:03;14.10;99.90
25300;DHT22;13241;51.208;4.432;2023-10-31T11:40:33;14.20;99.90
25300;DHT22;13241;51.208;4.432;2023-10-31T11:43:04;14.40;99.90
25300;DHT22;13241;51.208;4.432;2023-10-31T11:45:45;14.10;99.90
25300;DHT22;13241;51.208;4.432;2023-10-31T11:48:15;13.50;99.90
25300;DHT22;13241;51.208;4.432;2023-10-31T11:50:45;13.80;99.90
25300;DHT22;13241;51.208;4.432;2023-10-31T11:53:13;13.90;99.90
25300;DHT22;13241;51.208;4.432;2023-10-31T11:55:44;14.10;99.90
25300;DHT22;13241;51.208;4.432;2023-10-31T11:58:18;14.40;99.90
25300;DHT22;13241;51.208;4.432;2023-10-31T12:03:18;13.70;99.90
25300;DHT22;13241;51.208;4.432;2023-10-31T12:05:58;14.10;99.90
25300;DHT22;13241;51.208;4.432;2023-10-31T12:08:35;13.90;99.90
25300;DHT22;13241;51.208;4.432;2023-10-31T12:13:35;13.50;99.90
25300;DHT22;13241;51.208;4.432;2023-10-31T12:16:02;13.60;99.90
25300;DHT22;13241;51.208;4.432;2023-10-31T12:18:29;13.40;99.90
25300;DHT22;13241;51.208;4.432;2023-10-31T12:20:56;13.40;99.90
25300;DHT22;13241;51.208;4.432;2023-10-31T12:23:24;13.40;99.90
25300;DHT22;13241;51.208;4.432;2023-10-31T12:26:05;13.20;99.90
25300;DHT22;13241;51.208;4.432;2023-10-31T12:28:32;13.20;99.90
25300;DHT22;13241;51.208;4.432;2023-10-31T12:30:59;13.20;99.90
25300;DHT22;13241;51.208;4.432;2023-10-31T12:33:29;12.90;99.90
25300;DHT22;13241;51.208;4.432;2023-10-31T12:35:58;12.90;99.90
25300;DHT22;13241;51.208;4.432;2023-10-31T12:38:25;13.00;99.90
25300;DHT22;13241;51.208;4.432;2023-10-31T12:40:53;13.00;99.90
25300;DHT22;13241;51.208;4.432;2023-10-31T12:43:20;13.00;99.90
25300;DHT22;13241;51.208;4.432;2023-10-31T12:45:47;12.90;99.90
25300;DHT22;13241;51.208;4.432;2023-10-31T12:48:14;12.70;99.90
25300;DHT22;13241;51.208;4.432;2023-10-31T12:50:41;12.70;99.90
25300;DHT22;13241;51.208;4.432;2023-10-31T12:53:09;13.10;99.90
25300;DHT22;13241;51.208;4.432;2023-10-31T12:55:40;12.70;99.90
25300;DHT22;13241;51.208;4.432;2023-10-31T12:58:08;12.70;99.90
25300;DHT22;13241;51.208;4.432;2023-10-31T13:00:37;12.70;99.90
25300;DHT22;13241;51.208;4.432;2023-10-31T13:03:06;12.90;99.90
25300;DHT22;13241;51.208;4.432;2023-10-31T13:05:35;12.80;99.90
25300;DHT22;13241;51.208;4.432;2023-10-31T13:08:03;12.90;99.90
25300;DHT22;13241;51.208;4.432;2023-10-31T13:10:33;12.80;99.90
25300;DHT22;13241;51.208;4.432;2023-10-31T13:13:00;13.20;99.90
25300;DHT22;13241;51.208;4.432;2023-10-31T13:15:28;13.00;99.90
25300;DHT22;13241;51.208;4.432;2023-10-31T13:17:55;13.00;99.90
25300;DHT22;13241;51.208;4.432;2023-10-31T13:20:23;13.10;99.90
25300;DHT22;13241;51.208;4.432;2023-10-31T13:22:50;13.30;99.90
25300;DHT22;13241;51.208;4.432;2023-10-31T13:25:17;13.20;99.90
25300;DHT22;13241;51.208;4.432;2023-10-31T13:27:45;13.20;99.90
25300;DHT22;13241;51.208;4.432;2023-10-31T13:30:19;13.30;99.90
25300;DHT22;13241;51.208;4.432;2023-10-31T13:32:48;13.40;99.90
25300;DHT22;13241;51.208;4.432;2023-10-31T13:35:16;13.30;99.90
25300;DHT22;13241;51.208;4.432;2023-10-31T13:37:43;13.10;99.90
25300;DHT22;13241;51.208;4.432;2023-10-31T13:40:12;13.50;99.90
25300;DHT22;13241;51.208;4.432;2023-10-31T13:42:41;13.10;99.90
25300;DHT22;13241;51.208;4.432;2023-10-31T13:45:09;13.20;99.90
25300;DHT22;13241;51.208;4.432;2023-10-31T13:47:38;13.20;99.90
25300;DHT22;13241;51.208;4.432;2023-10-31T13:50:06;13.00;99.90
25300;DHT22;13241;51.208;4.432;2023-10-31T13:52:35;12.90;99.90
25300;DHT22;13241;51.208;4.432;2023-10-31T14:02:27;12.70;99.90
25300;DHT22;13241;51.208;4.432;2023-10-31T14:04:55;13.10;99.90
25300;DHT22;13241;51.208;4.432;2023-10-31T14:07:22;13.50;99.90
25300;DHT22;13241;51.208;4.432;2023-10-31T14:09:50;13.50;99.90
25300;DHT22;13241;51.208;4.432;2023-10-31T14:12:17;13.70;99.90
25300;DHT22;13241;51.208;4.432;2023-10-31T14:14:44;14.10;99.90
25300;DHT22;13241;51.208;4.432;2023-10-31T14:17:16;14.50;99.90
25300;DHT22;13241;51.208;4.432;2023-10-31T14:19:43;14.30;99.90
25300;DHT22;13241;51.208;4.432;2023-10-31T14:22:12;14.80;99.90
25300;DHT22;13241;51.208;4.432;2023-10-31T14:24:39;14.60;99.90
25300;DHT22;13241;51.208;4.432;2023-10-31T14:27:06;15.00;99.90
25300;DHT22;13241;51.208;4.432;2023-10-31T14:29:33;14.80;99.90
25300;DHT22;13241;51.208;4.432;2023-10-31T14:32:09;15.10;99.90
25300;DHT22;13241;51.208;4.432;2023-10-31T14:34:36;14.80;99.90
25300;DHT22;13241;51.208;4.432;2023-10-31T14:37:03;14.70;99.90
25300;DHT22;13241;51.208;4.432;2023-10-31T14:39:32;14.50;99.90
25300;DHT22;13241;51.208;4.432;2023-10-31T14:41:59;15.00;99.90
25300;DHT22;13241;51.208;4.432;2023-10-31T14:44:27;15.30;99.90
25300;DHT22;13241;51.208;4.432;2023-10-31T14:46:55;15.40;99.90
25300;DHT22;13241;51.208;4.432;2023-10-31T14:49:22;15.10;99.90
25300;DHT22;13241;51.208;4.432;2023-10-31T14:51:49;14.80;99.90
25300;DHT22;13241;51.208;4.432;2023-10-31T14:54:16;14.60;99.90
25300;DHT22;13241;51.208;4.432;2023-10-31T14:56:43;14.50;99.90
25300;DHT22;13241;51.208;4.432;2023-10-31T14:59:10;14.60;99.90
25300;DHT22;13241;51.208;4.432;2023-10-31T15:01:37;14.30;99.90
25300;DHT22;13241;51.208;4.432;2023-10-31T15:04:04;14.40;99.90
25300;DHT22;13241;51.208;4.432;2023-10-31T15:06:31;13.90;99.90
25300;DHT22;13241;51.208;4.432;2023-10-31T15:08:58;14.00;99.90
25300;DHT22;13241;51.208;4.432;2023-10-31T15:11:24;13.80;99.90
25300;DHT22;13241;51.208;4.432;2023-10-31T15:13:52;14.40;99.90
25300;DHT22;13241;51.208;4.432;2023-10-31T15:16:19;13.50;99.90
25300;DHT22;13241;51.208;4.432;2023-10-31T15:18:46;13.40;99.90
25300;DHT22;13241;51.208;4.432;2023-10-31T15:21:13;13.50;99.90
25300;DHT22;13241;51.208;4.432;2023-10-31T15:23:40;13.60;99.90
25300;DHT22;13241;51.208;4.432;2023-10-31T15:26:07;13.40;99.90
25300;DHT22;13241;51.208;4.432;2023-10-31T15:28:42;13.40;99.90
25300;DHT22;13241;51.208;4.432;2023-10-31T15:31:11;13.20;99.90
25300;DHT22;13241;51.208;4.432;2023-10-31T15:33:37;13.30;99.90
25300;DHT22;13241;51.208;4.432;2023-10-31T15:36:10;13.30;99.90
25300;DHT22;13241;51.208;4.432;2023-10-31T15:38:39;13.20;99.90
25300;DHT22;13241;51.208;4.432;2023-10-31T15:41:07;13.70;99.90
25300;DHT22;13241;51.208;4.432;2023-10-31T15:43:43;13.50;99.90
25300;DHT22;13241;51.208;4.432;2023-10-31T15:46:10;13.40;99.90
25300;DHT22;13241;51.208;4.432;2023-10-31T15:48:37;13.70;99.90
25300;DHT22;13241;51.208;4.432;2023-10-31T15:51:04;13.40;99.90
25300;DHT22;13241;51.208;4.432;2023-10-31T15:53:31;13.00;99.90
25300;DHT22;13241;51.208;4.432;2023-10-31T15:55:59;13.10;99.90
25300;DHT22;13241;51.208;4.432;2023-10-31T15:58:25;13.10;99.90
25300;DHT22;13241;51.208;4.432;2023-10-31T16:00:53;13.10;99.90
25300;DHT22;13241;51.208;4.432;2023-10-31T16:03:20;13.20;99.90
25300;DHT22;13241;51.208;4.432;2023-10-31T16:05:47;13.20;99.90
25300;DHT22;13241;51.208;4.432;2023-10-31T16:08:14;13.20;99.90
25300;DHT22;13241;51.208;4.432;2023-10-31T16:10:41;13.10;99.90
25300;DHT22;13241;51.208;4.432;2023-10-31T16:13:08;12.70;99.90
25300;DHT22;13241;51.208;4.432;2023-10-31T16:15:35;13.00;99.90
25300;DHT22;13241;51.208;4.432;2023-10-31T16:18:02;12.50;99.90
25300;DHT22;13241;51.208;4.432;2023-10-31T16:20:30;13.00;99.90
25300;DHT22;13241;51.208;4.432;2023-10-31T16:22:57;13.40;99.90
25300;DHT22;13241;51.208;4.432;2023-10-31T16:25:24;13.30;99.90
25300;DHT22;13241;51.208;4.432;2023-10-31T16:27:51;13.00;99.90
25300;DHT22;13241;51.208;4.432;2023-10-31T16:30:18;13.10;99.90
25300;DHT22;13241;51.208;4.432;2023-10-31T16:32:45;13.00;99.90
25300;DHT22;13241;51.208;4.432;2023-10-31T16:35:12;13.00;99.90
25300;DHT22;13241;51.208;4.432;2023-10-31T16:37:39;12.70;99.90
25300;DHT22;13241;51.208;4.432;2023-10-31T16:40:07;12.80;99.90
25300;DHT22;13241;51.208;4.432;2023-10-31T16:42:34;12.70;99.90
25300;DHT22;13241;51.208;4.432;2023-10-31T16:45:01;12.80;99.90
25300;DHT22;13241;51.208;4.432;2023-10-31T16:47:32;12.80;99.90
25300;DHT22;13241;51.208;4.432;2023-10-31T16:49:59;12.80;99.90
25300;DHT22;13241;51.208;4.432;2023-10-31T16:52:26;13.80;99.90
25300;DHT22;13241;51.208;4.432;2023-10-31T16:54:53;13.00;99.90
25300;DHT22;13241;51.208;4.432;2023-10-31T16:57:36;13.00;99.90
25300;DHT22;13241;51.208;4.432;2023-10-31T17:00:09;12.70;99.90
25300;DHT22;13241;51.208;4.432;2023-10-31T17:02:35;12.80;99.90
25300;DHT22;13241;51.208;4.432;2023-10-31T17:05:03;13.30;99.90
25300;DHT22;13241;51.208;4.432;2023-10-31T17:07:31;12.80;99.90
25300;DHT22;13241;51.208;4.432;2023-10-31T17:09:57;12.90;99.90
25300;DHT22;13241;51.208;4.432;2023-10-31T17:12:24;13.00;99.90
25300;DHT22;13241;51.208;4.432;2023-10-31T17:14:52;13.10;99.90
25300;DHT22;13241;51.208;4.432;2023-10-31T17:17:20;13.10;99.90
25300;DHT22;13241;51.208;4.432;2023-10-31T17:19:48;13.00;99.90
25300;DHT22;13241;51.208;4.432;2023-10-31T17:22:15;13.20;99.90
25300;DHT22;13241;51.208;4.432;2023-10-31T17:24:42;13.10;99.90
25300;DHT22;13241;51.208;4.432;2023-10-31T17:27:12;13.10;99.90
25300;DHT22;13241;51.208;4.432;2023-10-31T17:29:39;13.30;99.90
25300;DHT22;13241;51.208;4.432;2023-10-31T17:32:06;13.30;99.90
25300;DHT22;13241;51.208;4.432;2023-10-31T17:34:46;13.40;99.90
25300;DHT22;13241;51.208;4.432;2023-10-31T17:37:13;13.10;99.90
25300;DHT22;13241;51.208;4.432;2023-10-31T17:39:40;13.10;99.90
25300;DHT22;13241;51.208;4.432;2023-10-31T17:42:07;13.20;99.90
25300;DHT22;13241;51.208;4.432;2023-10-31T17:44:34;13.30;99.90
25300;DHT22;13241;51.208;4.432;2023-10-31T17:47:02;13.50;99.90
25300;DHT22;13241;51.208;4.432;2023-10-31T17:49:29;13.20;99.90
25300;DHT22;13241;51.208;4.432;2023-10-31T17:51:56;13.50;99.90
25300;DHT22;13241;51.208;4.432;2023-10-31T17:54:24;13.40;99.90
25300;DHT22;13241;51.208;4.432;2023-10-31T17:56:52;13.10;99.90
25300;DHT22;13241;51.208;4.432;2023-10-31T17:59:19;13.50;99.90
25300;DHT22;13241;51.208;4.432;2023-10-31T18:01:46;13.00;99.90
25300;DHT22;13241;51.208;4.432;2023-10-31T18:04:17;13.10;99.90
25300;DHT22;13241;51.208;4.432;2023-10-31T18:06:44;12.80;99.90
25300;DHT22;13241;51.208;4.432;2023-10-31T18:09:11;13.00;99.90
25300;DHT22;13241;51.208;4.432;2023-10-31T18:11:40;13.20;99.90
25300;DHT22;13241;51.208;4.432;2023-10-31T18:14:07;12.80;99.90
25300;DHT22;13241;51.208;4.432;2023-10-31T18:16:34;12.60;99.90
25300;DHT22;13241;51.208;4.432;2023-10-31T18:19:02;12.60;99.90
25300;DHT22;13241;51.208;4.432;2023-10-31T18:21:29;12.50;99.90
25300;DHT22;13241;51.208;4.432;2023-10-31T18:23:56;12.80;99.90
25300;DHT22;13241;51.208;4.432;2023-10-31T18:26:24;13.10;99.90
25300;DHT22;13241;51.208;4.432;2023-10-31T18:28:51;12.50;99.90
25300;DHT22;13241;51.208;4.432;2023-10-31T18:31:18;12.60;99.90
25300;DHT22;13241;51.208;4.432;2023-10-31T18:33:45;12.60;99.90
25300;DHT22;13241;51.208;4.432;2023-10-31T18:36:13;12.80;99.90
25300;DHT22;13241;51.208;4.432;2023-10-31T18:38:52;12.70;99.90
25300;DHT22;13241;51.208;4.432;2023-10-31T18:41:19;12.70;99.90
25300;DHT22;13241;51.208;4.432;2023-10-31T18:43:46;13.10;99.90
25300;DHT22;13241;51.208;4.432;2023-10-31T18:46:33;13.20;99.90
25300;DHT22;13241;51.208;4.432;2023-10-31T18:49:00;13.20;99.90
25300;DHT22;13241;51.208;4.432;2023-10-31T18:51:27;13.10;99.90
25300;DHT22;13241;51.208;4.432;2023-10-31T18:53:54;12.80;99.90
25300;DHT22;13241;51.208;4.432;2023-10-31T18:56:21;12.90;99.90
25300;DHT22;13241;51.208;4.432;2023-10-31T18:58:48;13.40;99.90
25300;DHT22;13241;51.208;4.432;2023-10-31T19:01:27;12.80;99.90
25300;DHT22;13241;51.208;4.432;2023-10-31T19:03:54;13.00;99.90
25300;DHT22;13241;51.208;4.432;2023-10-31T19:06:23;13.00;99.90
25300;DHT22;13241;51.208;4.432;2023-10-31T19:08:51;12.90;99.90
25300;DHT22;13241;51.208;4.432;2023-10-31T19:11:19;12.80;99.90
25300;DHT22;13241;51.208;4.432;2023-10-31T19:13:47;12.70;99.90
25300;DHT22;13241;51.208;4.432;2023-10-31T19:16:14;12.60;99.90
25300;DHT22;13241;51.208;4.432;2023-10-31T19:18:41;12.90;99.90
25300;DHT22;13241;51.208;4.432;2023-10-31T19:21:08;13.00;99.90
25300;DHT22;13241;51.208;4.432;2023-10-31T19:23:34;12.60;99.90
25300;DHT22;13241;51.208;4.432;2023-10-31T19:26:03;12.60;99.90
25300;DHT22;13241;51.208;4.432;2023-10-31T19:28:30;12.30;99.90
25300;DHT22;13241;51.208;4.432;2023-10-31T19:30:57;12.70;99.90
25300;DHT22;13241;51.208;4.432;2023-10-31T19:33:23;12.80;99.90
25300;DHT22;13241;51.208;4.432;2023-10-31T19:35:50;12.50;99.90
25300;DHT22;13241;51.208;4.432;2023-10-31T19:38:20;12.70;99.90
25300;DHT22;13241;51.208;4.432;2023-10-31T19:40:47;12.90;99.90
25300;DHT22;13241;51.208;4.432;2023-10-31T19:43:16;12.70;99.90
25300;DHT22;13241;51.208;4.432;2023-10-31T19:45:43;12.70;99.90
25300;DHT22;13241;51.208;4.432;2023-10-31T19:48:11;12.60;99.90
25300;DHT22;13241;51.208;4.432;2023-10-31T19:50:38;12.60;99.90
25300;DHT22;13241;51.208;4.432;2023-10-31T19:53:06;12.60;99.90
25300;DHT22;13241;51.208;4.432;2023-10-31T19:55:33;12.60;99.90
25300;DHT22;13241;51.208;4.432;2023-10-31T19:58:00;12.60;99.90
25300;DHT22;13241;51.208;4.432;2023-10-31T20:00:27;12.50;99.90
25300;DHT22;13241;51.208;4.432;2023-10-31T20:02:55;12.60;99.90
25300;DHT22;13241;51.208;4.432;2023-10-31T20:05:22;12.60;99.90
25300;DHT22;13241;51.208;4.432;2023-10-31T20:07:49;12.80;99.90
25300;DHT22;13241;51.208;4.432;2023-10-31T20:10:16;12.80;99.90
